createdAt,value
2019-04-10T00:01:20.748Z,96362.27
2019-04-10T00:02:57.723Z,96360.08
2019-04-10T00:04:33.389Z,96361.61
2019-04-10T00:06:08.864Z,96359.31
2019-04-10T00:07:44.593Z,96358.05
2019-04-10T00:09:21.081Z,96358.05
2019-04-10T00:10:58.977Z,96358.48
2019-04-10T00:12:36.424Z,96354.87
2019-04-10T00:14:14.708Z,96355.77
2019-04-10T00:15:50.993Z,96353.01
2019-04-10T00:17:27.010Z,96359.30
2019-04-10T00:19:02.679Z,96358.11
2019-04-10T00:20:37.752Z,96354.20
2019-04-10T00:22:13.928Z,96357.08
2019-04-10T00:23:49.632Z,96356.52
2019-04-10T00:25:25.019Z,96352.44
2019-04-10T00:27:00.184Z,96361.73
2019-04-10T00:28:35.878Z,96362.16
2019-04-10T00:30:13.119Z,96358.69
2019-04-10T00:31:48.743Z,96366.41
2019-04-10T00:33:24.985Z,96362.42
2019-04-10T00:35:00.375Z,96366.42
2019-04-10T00:36:35.814Z,96359.59
2019-04-10T00:38:12.126Z,96359.97
2019-04-10T00:39:47.704Z,96361.92
2019-04-10T00:41:23.970Z,96364.33
2019-04-10T00:43:00.209Z,96366.42
2019-04-10T00:44:35.863Z,96363.88
2019-04-10T00:46:11.429Z,96363.45
2019-04-10T00:47:49.168Z,96361.83
2019-04-10T00:49:27.349Z,96361.50
2019-04-10T00:51:08.868Z,96360.39
2019-04-10T00:52:44.697Z,96365.45
2019-04-10T00:54:20.150Z,96364.05
2019-04-10T00:55:56.381Z,96356.31
2019-04-10T00:57:31.692Z,96363.78
2019-04-10T00:59:08.760Z,96365.57
2019-04-10T01:00:45.412Z,96365.45
2019-04-10T01:02:21.167Z,96361.03
2019-04-10T01:03:56.495Z,96358.06
2019-04-10T01:05:31.764Z,96363.42
2019-04-10T01:07:08.594Z,96356.88
2019-04-10T01:08:44.756Z,96357.43
2019-04-10T01:10:19.941Z,96353.11
2019-04-10T01:11:57.506Z,96349.53
2019-04-10T01:13:32.718Z,96359.72
2019-04-10T01:15:08.455Z,96354.84
2019-04-10T01:16:43.965Z,96360.53
2019-04-10T01:18:19.629Z,96355.33
2019-04-10T01:19:55.101Z,96350.48
2019-04-10T01:21:30.599Z,96352.44
2019-04-10T01:23:06.081Z,96351.80
2019-04-10T01:24:41.736Z,96356.98
2019-04-10T01:26:17.215Z,96354.72
2019-04-10T01:27:52.586Z,96364.73
2019-04-10T01:29:29.274Z,96350.22
2019-04-10T01:31:04.757Z,96357.27
2019-04-10T01:32:40.178Z,96360.73
2019-04-10T01:34:17.005Z,96356.52
2019-04-10T01:35:52.426Z,96360.00
2019-04-10T01:37:28.866Z,96356.89
2019-04-10T01:39:04.228Z,96355.19
2019-04-10T01:40:39.423Z,96363.06
2019-04-10T01:42:14.601Z,96363.66
2019-04-10T01:43:51.105Z,96363.17
2019-04-10T01:45:27.319Z,96359.36
2019-04-10T01:47:02.892Z,96364.27
2019-04-10T01:48:44.030Z,96354.85
2019-04-10T01:50:20.076Z,96356.30
2019-04-10T01:51:55.635Z,96350.05
2019-04-10T01:53:31.473Z,96355.20
2019-04-10T01:55:18.129Z,96359.28
2019-04-10T01:56:45.930Z,96353.16
2019-04-10T01:58:23.191Z,96354.43
2019-04-10T02:00:00.493Z,96357.84
2019-04-10T02:01:49.214Z,96351.48
2019-04-10T02:03:34.060Z,96352.23
2019-04-10T02:05:18.594Z,96352.41
2019-04-10T02:06:54.062Z,96355.19
2019-04-10T02:08:32.367Z,96361.10
2019-04-10T02:10:09.964Z,96357.20
2019-04-10T02:11:46.067Z,96362.77
2019-04-10T02:13:21.572Z,96358.45
2019-04-10T02:14:56.766Z,96360.68
2019-04-10T02:16:32.681Z,96358.21
2019-04-10T02:18:08.868Z,96355.15
2019-04-10T02:19:44.138Z,96357.81
2019-04-10T02:21:19.946Z,96365.41
2019-04-10T02:22:56.202Z,96362.09
2019-04-10T02:24:31.824Z,96361.98
2019-04-10T02:26:07.471Z,96361.23
2019-04-10T02:27:42.716Z,96363.27
2019-04-10T02:29:17.997Z,96359.86
2019-04-10T02:30:54.549Z,96363.05
2019-04-10T02:32:29.886Z,96358.31
2019-04-10T02:34:07.559Z,96354.84
2019-04-10T02:35:43.504Z,96356.41
2019-04-10T02:37:19.278Z,96351.52
2019-04-10T02:39:11.364Z,96350.14
2019-04-10T02:40:33.187Z,96354.77
2019-04-10T02:42:10.054Z,96350.23
2019-04-10T02:43:47.466Z,96353.08
2019-04-10T02:45:24.172Z,96351.06
2019-04-10T02:47:00.143Z,96357.38
2019-04-10T02:48:36.038Z,96358.02
2019-04-10T02:50:12.550Z,96356.63
2019-04-10T02:51:49.849Z,96359.61
2019-04-10T02:53:25.654Z,96353.39
2019-04-10T02:55:02.043Z,96350.99
2019-04-10T02:56:39.039Z,96354.28
2019-04-10T02:58:18.663Z,96356.14
2019-04-10T02:59:57.647Z,96355.33
2019-04-10T03:01:35.573Z,96352.31
2019-04-10T03:03:12.035Z,96346.67
2019-04-10T03:04:48.929Z,96354.72
2019-04-10T03:06:24.617Z,96353.57
2019-04-10T03:08:00.254Z,96350.19
2019-04-10T03:09:49.639Z,96348.55
2019-04-10T03:11:14.528Z,96349.91
2019-04-10T03:12:52.600Z,96355.53
2019-04-10T03:14:28.554Z,96353.88
2019-04-10T03:16:05.454Z,96355.72
2019-04-10T03:17:42.075Z,96353.56
2019-04-10T03:19:17.530Z,96351.00
2019-04-10T03:20:54.124Z,96351.44
2019-04-10T03:22:29.533Z,96352.31
2019-04-10T03:24:04.589Z,96357.39
2019-04-10T03:25:41.855Z,96351.44
2019-04-10T03:27:17.075Z,96350.24
2019-04-10T03:28:52.204Z,96352.61
2019-04-10T03:30:27.462Z,96345.94
2019-04-10T03:32:23.656Z,96348.75
2019-04-10T03:34:06.221Z,96347.22
2019-04-10T03:35:43.244Z,96351.08
2019-04-10T03:37:18.363Z,96345.86
2019-04-10T03:38:59.918Z,96350.53
2019-04-10T03:40:31.380Z,96345.24
2019-04-10T03:42:06.899Z,96351.41
2019-04-10T03:43:42.166Z,96355.72
2019-04-10T03:45:17.749Z,96349.73
2019-04-10T03:46:53.875Z,96351.19
2019-04-10T03:48:30.003Z,96352.17
2019-04-10T03:50:05.144Z,96355.36
2019-04-10T03:51:40.970Z,96353.89
2019-04-10T03:53:23.196Z,96351.91
2019-04-10T03:54:59.125Z,96353.34
2019-04-10T03:56:34.366Z,96351.91
2019-04-10T03:58:14.110Z,96358.66
2019-04-10T03:59:58.157Z,96354.73
2019-04-10T04:01:33.940Z,96356.91
2019-04-10T04:03:10.573Z,96358.72
2019-04-10T04:04:46.044Z,96362.22
2019-04-10T04:06:21.864Z,96362.19
2019-04-10T04:07:57.471Z,96353.91
2019-04-10T04:09:40.630Z,96354.86
2019-04-10T04:11:25.961Z,96358.76
2019-04-10T04:13:01.637Z,96358.20
2019-04-10T04:14:59.006Z,96353.36
2019-04-10T04:16:33.835Z,96352.26
2019-04-10T04:18:08.938Z,96354.62
2019-04-10T04:19:50.407Z,96351.77
2019-04-10T04:21:26.119Z,96353.30
2019-04-10T04:23:01.450Z,96355.78
2019-04-10T04:24:36.753Z,96352.93
2019-04-10T04:26:14.825Z,96350.66
2019-04-10T04:27:50.000Z,96355.34
2019-04-10T04:29:25.100Z,96355.34
2019-04-10T04:31:00.995Z,96357.00
2019-04-10T04:32:38.389Z,96364.52
2019-04-10T04:34:14.662Z,96363.34
2019-04-10T04:35:50.786Z,96358.36
2019-04-10T04:37:26.101Z,96365.68
2019-04-10T04:39:13.541Z,96365.47
2019-04-10T04:40:39.362Z,96361.97
2019-04-10T04:42:14.985Z,96365.47
2019-04-10T04:43:50.217Z,96372.61
2019-04-10T04:45:25.656Z,96374.75
2019-04-10T04:47:01.219Z,96370.76
2019-04-10T04:48:38.241Z,96368.59
2019-04-10T04:50:13.319Z,96374.91
2019-04-10T04:51:48.524Z,96380.48
2019-04-10T04:53:27.988Z,96376.59
2019-04-10T04:55:12.197Z,96376.62
2019-04-10T04:56:48.374Z,96376.04
2019-04-10T04:58:24.345Z,96379.87
2019-04-10T04:59:59.566Z,96380.27
2019-04-10T05:01:35.993Z,96379.33
2019-04-10T05:03:35.350Z,96381.84
2019-04-10T05:05:12.638Z,96382.26
2019-04-10T05:06:50.071Z,96387.47
2019-04-10T05:08:26.389Z,96388.02
2019-04-10T05:10:02.204Z,96392.81
2019-04-10T05:11:38.518Z,96396.86
2019-04-10T05:13:15.928Z,96392.99
2019-04-10T05:15:00.351Z,96398.36
2019-04-10T05:16:36.319Z,96396.77
2019-04-10T05:18:17.726Z,96404.28
2019-04-10T05:19:55.691Z,96403.30
2019-04-10T05:21:31.553Z,96404.25
2019-04-10T05:23:08.884Z,96400.77
2019-04-10T05:24:52.364Z,96409.44
2019-04-10T05:26:28.189Z,96410.39
2019-04-10T05:28:06.163Z,96411.16
2019-04-10T05:29:41.369Z,96407.11
2019-04-10T05:31:21.408Z,96408.06
2019-04-10T05:32:57.783Z,96410.70
2019-04-10T05:34:33.849Z,96408.73
2019-04-10T05:36:09.119Z,96412.17
2019-04-10T05:37:45.638Z,96410.00
2019-04-10T05:39:22.368Z,96418.06
2019-04-10T05:40:59.257Z,96418.03
2019-04-10T05:42:37.283Z,96414.94
2019-04-10T05:44:13.619Z,96415.06
2019-04-10T05:45:49.394Z,96416.78
2019-04-10T05:47:26.151Z,96415.70
2019-04-10T05:49:02.955Z,96424.72
2019-04-10T05:50:38.531Z,96421.98
2019-04-10T05:52:14.705Z,96416.27
2019-04-10T05:53:53.648Z,96416.70
2019-04-10T05:55:29.061Z,96421.05
2019-04-10T05:57:06.844Z,96423.02
2019-04-10T05:58:42.808Z,96420.43
2019-04-10T06:00:19.478Z,96421.74
2019-04-10T06:01:54.748Z,96418.86
2019-04-10T06:03:30.316Z,96426.53
2019-04-10T06:05:08.206Z,96429.83
2019-04-10T06:06:44.310Z,96429.02
2019-04-10T06:08:21.602Z,96433.30
2019-04-10T06:10:01.918Z,96436.19
2019-04-10T06:11:33.627Z,96440.76
2019-04-10T06:13:08.963Z,96445.84
2019-04-10T06:14:44.480Z,96440.66
2019-04-10T06:16:19.883Z,96447.70
2019-04-10T06:17:57.231Z,96445.53
2019-04-10T06:19:36.342Z,96448.95
2019-04-10T06:21:12.528Z,96445.89
2019-04-10T06:22:48.091Z,96450.25
2019-04-10T06:24:44.619Z,96449.75
2019-04-10T06:26:19.956Z,96445.03
2019-04-10T06:28:09.427Z,96445.76
2019-04-10T06:29:56.163Z,96445.80
2019-04-10T06:31:34.257Z,96440.12
2019-04-10T06:33:34.477Z,96442.88
2019-04-10T06:35:16.632Z,96442.72
2019-04-10T06:36:53.476Z,96450.44
2019-04-10T06:38:39.438Z,96451.86
2019-04-10T06:40:27.121Z,96453.40
2019-04-10T06:42:02.536Z,96459.67
2019-04-10T06:43:41.279Z,96451.19
2019-04-10T06:45:17.528Z,96457.52
2019-04-10T06:46:54.991Z,96449.70
2019-04-10T06:48:34.228Z,96452.58
2019-04-10T06:50:10.634Z,96451.55
2019-04-10T06:51:47.300Z,96450.17
2019-04-10T06:53:24.758Z,96447.84
2019-04-10T06:55:07.119Z,96449.73
2019-04-10T06:56:43.790Z,96456.41
2019-04-10T06:58:38.144Z,96450.49
2019-04-10T07:00:19.763Z,96450.59
2019-04-10T07:02:14.134Z,96455.25
2019-04-10T07:03:54.571Z,96448.44
2019-04-10T07:05:24.057Z,96450.97
2019-04-10T07:07:08.785Z,96452.14
2019-04-10T07:08:48.885Z,96451.97
2019-04-10T07:10:28.552Z,96457.50
2019-04-10T07:12:01.022Z,96455.67
2019-04-10T07:13:40.060Z,96461.95
2019-04-10T07:15:22.403Z,96459.88
2019-04-10T07:17:05.057Z,96463.65
2019-04-10T07:18:38.635Z,96461.28
2019-04-10T07:20:19.152Z,96467.14
2019-04-10T07:21:59.773Z,96461.13
2019-04-10T07:23:33.824Z,96470.03
2019-04-10T07:25:12.693Z,96471.65
2019-04-10T07:26:49.490Z,96474.78
2019-04-10T07:28:29.877Z,96473.31
2019-04-10T07:30:08.401Z,96470.90
2019-04-10T07:31:44.654Z,96472.14
2019-04-10T07:33:21.072Z,96473.34
2019-04-10T07:34:59.162Z,96470.26
2019-04-10T07:36:41.689Z,96469.16
2019-04-10T07:38:18.025Z,96472.19
2019-04-10T07:39:55.083Z,96479.48
2019-04-10T07:41:31.703Z,96476.49
2019-04-10T07:43:08.154Z,96477.79
2019-04-10T07:44:43.613Z,96488.68
2019-04-10T07:46:24.091Z,96481.77
2019-04-10T07:48:00.342Z,96485.23
2019-04-10T07:49:38.112Z,96491.37
2019-04-10T07:51:13.541Z,96489.98
2019-04-10T07:52:54.248Z,96492.14
2019-04-10T07:54:33.113Z,96491.47
2019-04-10T07:56:16.241Z,96494.87
2019-04-10T07:57:50.692Z,96486.80
2019-04-10T07:59:29.647Z,96492.42
2019-04-10T08:01:12.317Z,96494.56
2019-04-10T08:02:53.205Z,96501.56
2019-04-10T08:04:31.672Z,96499.07
2019-04-10T08:06:07.538Z,96500.67
2019-04-10T08:07:45.220Z,96498.69
2019-04-10T08:09:26.875Z,96501.67
2019-04-10T08:11:07.623Z,96498.57
2019-04-10T08:12:50.094Z,96500.62
2019-04-10T08:14:23.721Z,96500.39
2019-04-10T08:16:08.076Z,96499.58
2019-04-10T08:17:49.763Z,96499.58
2019-04-10T08:19:32.976Z,96496.09
2019-04-10T08:21:11.232Z,96500.79
2019-04-10T08:22:46.840Z,96510.95
2019-04-10T08:24:22.291Z,96511.72
2019-04-10T08:26:00.036Z,96514.32
2019-04-10T08:27:36.202Z,96507.01
2019-04-10T08:29:12.091Z,96498.98
2019-04-10T08:30:48.265Z,96510.31
2019-04-10T08:32:25.721Z,96514.86
2019-04-10T08:34:01.635Z,96503.44
2019-04-10T08:35:37.831Z,96513.62
2019-04-10T08:37:17.230Z,96514.59
2019-04-10T08:38:51.494Z,96514.76
2019-04-10T08:40:40.443Z,96513.30
2019-04-10T08:42:16.802Z,96516.64
2019-04-10T08:43:52.550Z,96512.87
2019-04-10T08:45:37.231Z,96514.04
2019-04-10T08:47:08.991Z,96517.97
2019-04-10T08:48:45.538Z,96519.41
2019-04-10T08:50:21.744Z,96520.19
2019-04-10T08:52:15.189Z,96519.93
2019-04-10T08:53:54.177Z,96523.01
2019-04-10T08:55:38.530Z,96517.16
2019-04-10T08:57:13.912Z,96523.38
2019-04-10T08:58:49.766Z,96513.05
2019-04-10T09:00:25.039Z,96518.77
2019-04-10T09:02:00.241Z,96511.88
2019-04-10T09:03:35.713Z,96514.66
2019-04-10T09:05:13.278Z,96508.09
2019-04-10T09:06:49.486Z,96510.53
2019-04-10T09:08:24.718Z,96510.25
2019-04-10T09:10:00.165Z,96512.38
2019-04-10T09:11:35.465Z,96516.02
2019-04-10T09:13:12.497Z,96514.66
2019-04-10T09:14:51.677Z,96511.05
2019-04-10T09:16:36.464Z,96514.88
2019-04-10T09:18:12.759Z,96508.34
2019-04-10T09:19:54.090Z,96514.67
2019-04-10T09:21:31.735Z,96511.41
2019-04-10T09:23:21.817Z,96512.61
2019-04-10T09:24:52.799Z,96512.75
2019-04-10T09:26:28.684Z,96518.81
2019-04-10T09:28:04.283Z,96527.61
2019-04-10T09:29:42.651Z,96524.87
2019-04-10T09:31:20.486Z,96528.81
2019-04-10T09:32:56.911Z,96523.11
2019-04-10T09:34:34.038Z,96521.38
2019-04-10T09:36:09.568Z,96513.91
2019-04-10T09:37:48.292Z,96508.02
2019-04-10T09:39:29.623Z,96520.83
2019-04-10T09:41:07.867Z,96518.53
2019-04-10T09:42:44.513Z,96516.66
2019-04-10T09:44:20.789Z,96523.56
2019-04-10T09:45:58.221Z,96521.72
2019-04-10T09:47:34.659Z,96523.78
2019-04-10T09:49:10.315Z,96528.27
2019-04-10T09:50:46.207Z,96524.99
2019-04-10T09:52:21.782Z,96531.41
2019-04-10T09:54:45.128Z,96532.02
2019-04-10T09:58:19.922Z,96531.23
2019-04-10T10:00:05.570Z,96525.02
2019-04-10T10:01:42.270Z,96521.26
2019-04-10T10:03:20.653Z,96526.16
2019-04-10T10:04:56.053Z,96521.16
2019-04-10T10:06:34.872Z,96525.78
2019-04-10T10:08:12.168Z,96530.57
2019-04-10T10:09:51.340Z,96544.77
2019-04-10T10:11:28.677Z,96544.71
2019-04-10T10:13:10.974Z,96543.13
2019-04-10T10:14:49.361Z,96537.42
2019-04-10T10:16:25.532Z,96536.05
2019-04-10T10:18:01.324Z,96531.31
2019-04-10T10:19:44.361Z,96534.38
2019-04-10T10:21:22.436Z,96537.98
2019-04-10T10:22:57.932Z,96539.20
2019-04-10T10:24:38.499Z,96537.74
2019-04-10T10:26:17.534Z,96536.75
2019-04-10T10:27:56.563Z,96547.20
2019-04-10T10:29:33.545Z,96537.88
2019-04-10T10:31:15.803Z,96543.77
2019-04-10T10:32:55.969Z,96539.89
2019-04-10T10:34:31.097Z,96546.82
2019-04-10T10:36:08.868Z,96546.28
2019-04-10T10:37:44.086Z,96540.77
2019-04-10T10:39:26.533Z,96543.52
2019-04-10T10:41:04.545Z,96538.14
2019-04-10T10:42:41.485Z,96547.53
2019-04-10T10:44:21.950Z,96542.17
2019-04-10T10:45:59.497Z,96553.77
2019-04-10T10:47:36.625Z,96546.80
2019-04-10T10:49:15.945Z,96547.13
2019-04-10T10:50:58.187Z,96539.63
2019-04-10T10:52:36.496Z,96541.45
2019-04-10T10:54:12.546Z,96535.76
2019-04-10T10:55:49.720Z,96537.62
2019-04-10T10:57:25.397Z,96535.64
2019-04-10T11:01:05.805Z,96542.73
2019-04-10T11:02:41.679Z,96546.33
2019-04-10T11:04:17.109Z,96542.98
2019-04-10T11:05:58.213Z,96544.95
2019-04-10T11:07:35.245Z,96548.05
2019-04-10T11:09:15.774Z,96549.19
2019-04-10T11:10:59.376Z,96536.70
2019-04-10T11:12:35.768Z,96541.41
2019-04-10T11:14:11.057Z,96552.81
2019-04-10T11:15:48.456Z,96549.98
2019-04-10T11:17:25.552Z,96541.03
2019-04-10T11:19:06.707Z,96545.13
2019-04-10T11:20:45.506Z,96541.80
2019-04-10T11:22:29.021Z,96547.06
2019-04-10T11:24:04.404Z,96551.45
2019-04-10T11:25:43.871Z,96550.16
2019-04-10T11:27:19.005Z,96552.08
2019-04-10T11:28:59.227Z,96561.52
2019-04-10T11:30:36.275Z,96554.98
2019-04-10T11:32:17.616Z,96551.44
2019-04-10T11:33:55.637Z,96544.41
2019-04-10T11:36:09.752Z,96553.86
2019-04-10T11:37:51.985Z,96554.30
2019-04-10T11:39:35.272Z,96553.20
2019-04-10T11:41:18.921Z,96558.27
2019-04-10T11:43:03.596Z,96553.33
2019-04-10T11:44:38.952Z,96554.78
2019-04-10T11:46:22.625Z,96557.22
2019-04-10T11:47:59.074Z,96555.66
2019-04-10T11:49:45.169Z,96560.36
2019-04-10T11:51:26.490Z,96554.42
2019-04-10T11:53:10.445Z,96558.30
2019-04-10T11:54:50.032Z,96551.20
2019-04-10T11:56:33.777Z,96561.47
2019-04-10T11:58:17.875Z,96561.73
2019-04-10T12:00:00.744Z,96571.55
2019-04-10T12:01:48.379Z,96563.52
2019-04-10T12:03:24.660Z,96567.09
2019-04-10T12:06:40.310Z,96563.11
2019-04-10T12:08:40.266Z,96562.31
2019-04-10T12:11:39.564Z,96566.06
2019-04-10T12:13:24.635Z,96575.27
2019-04-10T12:15:08.361Z,96572.55
2019-04-10T12:16:52.070Z,96562.49
2019-04-10T12:18:30.729Z,96564.81
2019-04-10T12:20:08.953Z,96558.98
2019-04-10T12:21:51.291Z,96575.05
2019-04-10T12:23:29.156Z,96575.89
2019-04-10T12:25:05.302Z,96567.22
2019-04-10T12:26:49.902Z,96573.84
2019-04-10T12:28:29.839Z,96564.86
2019-04-10T12:30:15.357Z,96571.27
2019-04-10T12:31:52.801Z,96575.38
2019-04-10T12:33:29.686Z,96575.20
2019-04-10T12:35:06.929Z,96572.69
2019-04-10T12:36:42.693Z,96570.08
2019-04-10T12:38:27.708Z,96580.41
2019-04-10T12:40:03.485Z,96581.77
2019-04-10T12:41:41.626Z,96575.33
2019-04-10T12:43:21.231Z,96576.53
2019-04-10T12:44:57.764Z,96572.52
2019-04-10T12:46:39.464Z,96578.75
2019-04-10T12:48:16.603Z,96578.75
2019-04-10T12:49:53.791Z,96574.36
2019-04-10T12:51:34.939Z,96571.02
2019-04-10T12:53:32.507Z,96570.06
2019-04-10T12:55:14.423Z,96564.31
2019-04-10T12:56:50.553Z,96570.42
2019-04-10T12:58:28.930Z,96568.38
2019-04-10T13:00:06.791Z,96563.16
2019-04-10T13:01:44.877Z,96563.80
2019-04-10T13:03:20.353Z,96558.93
2019-04-10T13:05:00.861Z,96574.05
2019-04-10T13:06:36.121Z,96574.34
2019-04-10T13:08:21.801Z,96573.69
2019-04-10T13:09:54.631Z,96565.63
2019-04-10T13:11:30.063Z,96562.45
2019-04-10T13:13:12.118Z,96573.06
2019-04-10T13:15:09.417Z,96579.08
2019-04-10T13:16:56.407Z,96581.30
2019-04-10T13:18:34.752Z,96577.34
2019-04-10T13:20:12.025Z,96570.53
2019-04-10T13:21:51.730Z,96568.67
2019-04-10T13:23:35.766Z,96572.49
2019-04-10T13:25:17.072Z,96568.69
2019-04-10T13:27:06.125Z,96575.77
2019-04-10T13:28:47.640Z,96572.30
2019-04-10T13:30:25.494Z,96576.59
2019-04-10T13:32:03.524Z,96570.61
2019-04-10T13:33:51.169Z,96570.85
2019-04-10T13:35:28.390Z,96576.64
2019-04-10T13:37:06.134Z,96580.44
2019-04-10T13:38:50.533Z,96575.34
2019-04-10T13:40:27.752Z,96581.13
2019-04-10T13:42:10.101Z,96575.22
2019-04-10T13:43:58.179Z,96582.28
2019-04-10T13:45:37.431Z,96576.81
2019-04-10T13:47:17.873Z,96576.78
2019-04-10T13:49:02.504Z,96587.11
2019-04-10T13:50:43.111Z,96585.55
2019-04-10T13:52:24.460Z,96588.81
2019-04-10T13:54:07.575Z,96581.35
2019-04-10T13:55:44.477Z,96587.59
2019-04-10T13:57:20.173Z,96583.77
2019-04-10T13:58:56.308Z,96582.54
2019-04-10T14:00:52.099Z,96580.26
2019-04-10T14:02:39.432Z,96579.77
2019-04-10T14:04:18.757Z,96573.51
2019-04-10T14:06:01.165Z,96583.67
2019-04-10T14:08:03.648Z,96594.92
2019-04-10T14:09:57.027Z,96590.35
2019-04-10T14:11:35.356Z,96586.41
2019-04-10T14:13:13.635Z,96591.58
2019-04-10T14:15:05.149Z,96590.94
2019-04-10T14:17:13.852Z,96590.89
2019-04-10T14:19:10.121Z,96585.46
2019-04-10T14:20:55.560Z,96595.48
2019-04-10T14:22:40.024Z,96590.80
2019-04-10T14:24:20.604Z,96597.01
2019-04-10T14:26:22.488Z,96596.00
2019-04-10T14:28:00.592Z,96593.11
2019-04-10T14:29:37.194Z,96591.19
2019-04-10T14:31:26.571Z,96596.73
2019-04-10T14:33:07.066Z,96595.30
2019-04-10T14:34:48.386Z,96595.40
2019-04-10T14:36:28.335Z,96605.92
2019-04-10T14:38:06.531Z,96609.36
2019-04-10T14:41:20.056Z,96606.02
2019-04-10T14:42:56.064Z,96608.55
2019-04-10T14:44:36.801Z,96601.91
2019-04-10T14:46:17.418Z,96603.31
2019-04-10T14:48:06.411Z,96618.94
2019-04-10T14:49:45.820Z,96622.77
2019-04-10T14:51:28.297Z,96607.80
2019-04-10T14:53:05.601Z,96620.12
2019-04-10T14:54:41.946Z,96614.83
2019-04-10T14:56:18.056Z,96617.23
2019-04-10T14:58:01.316Z,96623.78
2019-04-10T14:59:40.283Z,96624.45
2019-04-10T15:01:24.012Z,96620.16
2019-04-10T15:03:02.136Z,96618.18
2019-04-10T15:04:39.403Z,96623.63
2019-04-10T15:06:15.420Z,96618.98
2019-04-10T15:07:57.416Z,96631.17
2019-04-10T15:09:34.964Z,96625.64
2019-04-10T15:11:10.824Z,96630.20
2019-04-10T15:12:47.677Z,96630.64
2019-04-10T15:14:27.887Z,96629.55
2019-04-10T15:16:05.248Z,96635.20
2019-04-10T15:17:44.370Z,96637.08
2019-04-10T15:19:20.771Z,96638.47
2019-04-10T15:20:56.953Z,96648.52
2019-04-10T15:22:42.141Z,96636.00
2019-04-10T15:24:19.485Z,96647.27
2019-04-10T15:25:55.571Z,96650.80
2019-04-10T15:27:37.505Z,96640.91
2019-04-10T15:29:18.387Z,96641.03
2019-04-10T15:30:55.282Z,96646.99
2019-04-10T15:32:33.655Z,96648.97
2019-04-10T15:34:16.201Z,96645.78
2019-04-10T15:35:57.568Z,96648.48
2019-04-10T15:37:35.927Z,96662.97
2019-04-10T15:39:11.229Z,96667.78
2019-04-10T15:40:50.325Z,96663.94
2019-04-10T15:42:28.289Z,96652.97
2019-04-10T15:44:07.892Z,96653.09
2019-04-10T15:45:46.449Z,96652.70
2019-04-10T15:47:23.397Z,96657.70
2019-04-10T15:49:02.784Z,96656.78
2019-04-10T15:50:41.622Z,96657.50
2019-04-10T15:52:27.270Z,96662.70
2019-04-10T15:54:11.768Z,96658.59
2019-04-10T15:55:51.693Z,96657.11
2019-04-10T15:57:27.681Z,96659.05
2019-04-10T15:59:06.058Z,96667.25
2019-04-10T16:00:44.126Z,96663.73
2019-04-10T16:02:23.802Z,96671.31
2019-04-10T16:04:05.237Z,96669.34
2019-04-10T16:05:43.861Z,96677.06
2019-04-10T16:07:21.054Z,96673.48
2019-04-10T16:08:58.843Z,96668.14
2019-04-10T16:10:48.305Z,96670.80
2019-04-10T16:12:24.843Z,96666.58
2019-04-10T16:14:03.076Z,96675.22
2019-04-10T16:15:56.521Z,96677.30
2019-04-10T16:17:52.121Z,96677.58
2019-04-10T16:19:47.662Z,96674.05
2019-04-10T16:21:26.930Z,96678.76
2019-04-10T16:23:16.433Z,96684.13
2019-04-10T16:24:57.668Z,96684.42
2019-04-10T16:26:35.914Z,96688.73
2019-04-10T16:28:15.390Z,96685.91
2019-04-10T16:29:56.603Z,96679.88
2019-04-10T16:31:37.683Z,96684.26
2019-04-10T16:33:17.356Z,96682.18
2019-04-10T16:34:56.803Z,96685.67
2019-04-10T16:36:37.404Z,96683.59
2019-04-10T16:38:16.275Z,96688.25
2019-04-10T16:40:01.743Z,96697.36
2019-04-10T16:41:31.457Z,96698.66
2019-04-10T16:43:11.680Z,96703.48
2019-04-10T16:44:51.551Z,96707.11
2019-04-10T16:46:38.333Z,96710.52
2019-04-10T16:48:28.132Z,96710.25
2019-04-10T16:50:05.531Z,96701.23
2019-04-10T16:51:57.359Z,96703.78
2019-04-10T16:53:56.597Z,96705.17
2019-04-10T16:55:29.733Z,96710.11
2019-04-10T16:57:12.153Z,96714.58
2019-04-10T16:58:54.213Z,96720.03
2019-04-10T17:00:35.728Z,96714.47
2019-04-10T17:02:13.246Z,96714.58
2019-04-10T17:03:49.797Z,96710.39
2019-04-10T17:05:28.203Z,96733.86
2019-04-10T17:07:04.731Z,96717.39
2019-04-10T17:08:40.933Z,96722.91
2019-04-10T17:10:29.207Z,96722.78
2019-04-10T17:12:06.454Z,96725.77
2019-04-10T17:13:46.700Z,96727.30
2019-04-10T17:15:23.896Z,96718.02
2019-04-10T17:17:06.935Z,96737.29
2019-04-10T17:18:41.677Z,96728.18
2019-04-10T17:20:18.588Z,96737.95
2019-04-10T17:21:56.388Z,96731.05
2019-04-10T17:23:34.482Z,96742.29
2019-04-10T17:25:11.772Z,96732.56
2019-04-10T17:26:50.986Z,96737.41
2019-04-10T17:28:28.206Z,96743.63
2019-04-10T17:30:06.366Z,96740.47
2019-04-10T17:31:43.185Z,96745.96
2019-04-10T17:33:20.673Z,96743.12
2019-04-10T17:34:59.428Z,96744.86
2019-04-10T17:36:36.807Z,96747.58
2019-04-10T17:38:30.979Z,96748.70
2019-04-10T17:40:23.135Z,96751.11
2019-04-10T17:41:48.173Z,96753.25
2019-04-10T17:43:25.386Z,96760.52
2019-04-10T17:45:10.067Z,96753.63
2019-04-10T17:46:47.028Z,96763.95
2019-04-10T17:48:28.058Z,96762.05
2019-04-10T17:50:18.380Z,96767.44
2019-04-10T17:51:59.818Z,96773.86
2019-04-10T17:53:41.989Z,96774.28
2019-04-10T17:55:23.588Z,96776.99
2019-04-10T17:59:02.477Z,96777.96
2019-04-10T18:00:53.542Z,96783.55
2019-04-10T18:02:34.555Z,96789.17
2019-04-10T18:04:11.734Z,96789.74
2019-04-10T18:05:50.926Z,96789.56
2019-04-10T18:07:34.297Z,96793.95
2019-04-10T18:09:15.892Z,96803.05
2019-04-10T18:10:58.357Z,96802.52
2019-04-10T18:12:36.270Z,96811.44
2019-04-10T18:14:20.503Z,96802.34
2019-04-10T18:15:58.500Z,96808.32
2019-04-10T18:17:33.701Z,96807.54
2019-04-10T18:19:15.028Z,96814.80
2019-04-10T18:20:49.953Z,96811.00
2019-04-10T18:22:26.784Z,96819.75
2019-04-10T18:24:20.019Z,96818.27
2019-04-10T18:25:58.212Z,96821.25
2019-04-10T18:27:38.550Z,96819.88
2019-04-10T18:29:14.897Z,96825.45
2019-04-10T18:31:02.711Z,96830.58
2019-04-10T18:32:43.316Z,96828.78
2019-04-10T18:34:23.276Z,96835.09
2019-04-10T18:36:00.653Z,96837.27
2019-04-10T18:37:42.402Z,96838.53
2019-04-10T18:41:30.790Z,96843.61
2019-04-10T18:43:08.415Z,96850.08
2019-04-10T18:45:11.182Z,96856.23
2019-04-10T18:47:18.615Z,96855.99
2019-04-10T18:48:52.557Z,96856.81
2019-04-10T18:50:51.605Z,96856.58
2019-04-10T18:52:31.686Z,96857.86
2019-04-10T18:54:36.005Z,96869.16
2019-04-10T18:56:20.802Z,96864.72
2019-04-10T18:58:05.458Z,96871.87
2019-04-10T18:59:53.511Z,96872.73
2019-04-10T19:01:55.701Z,96866.58
2019-04-10T19:03:46.172Z,96873.72
2019-04-10T19:05:21.835Z,96878.60
2019-04-10T19:07:04.991Z,96875.74
2019-04-10T19:09:01.560Z,96877.50
2019-04-10T19:10:26.454Z,96882.20
2019-04-10T19:12:02.568Z,96884.88
2019-04-10T19:13:38.241Z,96883.73
2019-04-10T19:15:16.957Z,96891.52
2019-04-10T19:16:55.243Z,96889.69
2019-04-10T19:18:35.636Z,96889.10
2019-04-10T19:20:17.869Z,96890.54
2019-04-10T19:21:56.012Z,96898.49
2019-04-10T19:23:35.280Z,96900.84
2019-04-10T19:25:16.481Z,96898.61
2019-04-10T19:26:53.887Z,96904.69
2019-04-10T19:28:41.887Z,96904.51
2019-04-10T19:30:41.373Z,96903.73
2019-04-10T19:32:35.419Z,96908.90
2019-04-10T19:34:17.690Z,96907.55
2019-04-10T19:35:53.118Z,96914.36
2019-04-10T19:37:28.638Z,96914.79
2019-04-10T19:39:05.540Z,96913.47
2019-04-10T19:40:43.803Z,96919.51